DL5783 / N815MD 7700 Squawk Report (17th of November, 2020)

Aircraft E170 Reg No. N815MD Age N/A
Model Emb-170 Jet engines 2 First flight 07-04
Registered 12-18 Rollout 06-04 Delivered 15-07-04
Construction No. 17000034 Line No. N/A Series 100SU
ADSHEX AB1D06 Airline name Delta Connection Owner Republic Airways
Airfield based Indianapolis-International~IN~N First tracked N/A

Flight history for N815MD

Route Flight No Date Playback
Detroit Metro Wayne Co (DTW) - Indianapolis Intl (IND) N/A 2020-11-30 02:53:00
Indianapolis Intl (IND) - Detroit Metro Wayne Co (DTW) N/A 2020-11-29 23:55:00
Greenville-Spartanburg International (GSP) - Detroit Metro Wayne Co (DTW) DL5690 2020-11-29 19:34:00
Port Columbus (CMH) - Detroit Metro Wayne Co (DTW) DL5610 2020-11-29 13:58:00
Detroit Metro Wayne Co (DTW) - Port Columbus (CMH) N/A 2020-11-29 00:32:00
Detroit Metro Wayne Co (DTW) - Portland Intl Jetport (PWM) - Detroit Metro Wayne Co (DTW) DL5662 2020-11-28 22:20:00
Detroit Metro Wayne Co (DTW) - Indianapolis Intl (IND) - Detroit Metro Wayne Co (DTW) DL5810 2020-11-28 16:37:00
Cleveland Hopkins Intl (CLE) - Detroit Metro Wayne Co (DTW) DL5642 2020-11-28 11:37:00
Detroit Metro Wayne Co (DTW) - Cleveland Hopkins Intl (CLE) DL5606 2020-11-28 02:33:00
Louisville International Airport (SDF) - Detroit Metro Wayne Co (DTW) DL5804 2020-11-27 19:31:00
Hartsfield Jackson Atlanta Intl (ATL) - Louisville International Airport (SDF) DL5709 2020-11-27 16:26:00
Greenville-Spartanburg International (GSP) - Hartsfield Jackson Atlanta Intl (ATL) N/A 2020-11-26 21:16:00
Hartsfield Jackson Atlanta Intl (ATL) - Greenville-Spartanburg International (GSP) N/A 2020-11-26 20:42:00
Hilton Head Island Airport (HHH) - Hartsfield Jackson Atlanta Intl (ATL) YX5713 2020-11-26 13:39:00
Hartsfield Jackson Atlanta Intl (ATL) - Hilton Head Island Airport (HHH) DL5751 2020-11-26 01:44:00
Melbourne Intl (MLB) - Hartsfield Jackson Atlanta Intl (ATL) DL5698 2020-11-25 23:53:00
Hartsfield Jackson Atlanta Intl (ATL) - Melbourne Intl (MLB) DL5712 2020-11-25 21:31:00
Louisville International Airport (SDF) - Hartsfield Jackson Atlanta Intl (ATL) DL5768 2020-11-25 19:07:00
Detroit Metro Wayne Co (DTW) - Louisville International Airport (SDF) DL5714 2020-11-25 16:40:00
Indianapolis Intl (IND) - Detroit Metro Wayne Co (DTW) N/A 2020-11-25 14:11:00
Time Lat Lon Altitude Heading Speed Vertical Rate
2020-11-17 15:47:15 GMT 40.770031 -73.859779 0 212 19 0
2020-11-17 15:47:12 GMT 40.770069 -73.859444 0 212 27 0
2020-11-17 15:47:09 GMT 40.770592 -73.859077 0 208 10 0
2020-11-17 15:47:06 GMT 40.770592 -73.859077 0 215 10 0
2020-11-17 15:47:03 GMT 40.770691 -73.859032 0 216 12 0
2020-11-17 15:47:00 GMT 40.770828 -73.858971 0 219 11 0
2020-11-17 15:46:57 GMT 40.770950 -73.858803 0 221 15 0
2020-11-17 15:46:54 GMT 40.771099 -73.858566 0 174 12 32
2020-11-17 15:46:51 GMT 40.771278 -73.858513 0 161 10 0
2020-11-17 15:46:48 GMT 40.771389 -73.858391 0 145 12 0
2020-11-17 15:46:45 GMT 40.771530 -73.858498 0 139 11 0
2020-11-17 15:46:42 GMT 40.771751 -73.858757 0 122 13 0
2020-11-17 15:46:39 GMT 40.771751 -73.858757 0 120 15 0
2020-11-17 15:46:36 GMT 40.771851 -73.858994 0 123 19 0
2020-11-17 15:46:33 GMT 40.771992 -73.859268 0 121 18 0
2020-11-17 15:46:30 GMT 40.772121 -73.859550 0 118 19 0
2020-11-17 15:46:27 GMT 40.772228 -73.859871 0 126 16 0
2020-11-17 15:46:24 GMT 40.772381 -73.860107 0 124 18 0
2020-11-17 15:46:21 GMT 40.772499 -73.860352 0 122 18 0
2020-11-17 15:46:18 GMT 40.772640 -73.860619 0 121 18 0
2020-11-17 15:46:15 GMT 40.772770 -73.860924 0 122 16 0
2020-11-17 15:46:12 GMT 40.772888 -73.861183 0 116 16 0
2020-11-17 15:46:09 GMT 40.773102 -73.861641 0 125 16 0
2020-11-17 15:46:06 GMT 40.773102 -73.861641 0 127 17 0
2020-11-17 15:46:03 GMT 40.773239 -73.861877 0 127 17 0
2020-11-17 15:46:00 GMT 40.773411 -73.862137 0 115 15 0
2020-11-17 15:45:57 GMT 40.773499 -73.862389 0 118 12 0
2020-11-17 15:45:54 GMT 40.773560 -73.862610 0 125 16 0
2020-11-17 15:45:51 GMT 40.773701 -73.862831 0 121 15 0
2020-11-17 15:45:48 GMT 40.773781 -73.863052 0 121 15 0
2020-11-17 15:45:45 GMT 40.773930 -73.863297 0 119 16 0
2020-11-17 15:45:42 GMT 40.774029 -73.863548 0 124 14 0
2020-11-17 15:45:39 GMT 40.774158 -73.863792 0 122 15 0
2020-11-17 15:45:36 GMT 40.774281 -73.864052 0 121 16 0
2020-11-17 15:45:33 GMT 40.774368 -73.864273 0 125 18 0
2020-11-17 15:45:30 GMT 40.774521 -73.864532 0 122 16 0
2020-11-17 15:45:27 GMT 40.774658 -73.864807 0 115 16 0
2020-11-17 15:45:24 GMT 40.774761 -73.865067 0 120 15 0
2020-11-17 15:45:21 GMT 40.774860 -73.865318 0 122 17 0
2020-11-17 15:45:18 GMT 40.774990 -73.865570 0 127 16 0
2020-11-17 15:45:15 GMT 40.775120 -73.865807 0 120 17 0
2020-11-17 15:45:12 GMT 40.775349 -73.866318 0 123 16 0
2020-11-17 15:45:09 GMT 40.775349 -73.866318 0 123 15 0
2020-11-17 15:45:06 GMT 40.775459 -73.866547 0 119 15 0
2020-11-17 15:45:03 GMT 40.775570 -73.866783 0 126 14 0
2020-11-17 15:45:00 GMT 40.775700 -73.866966 0 117 13 0
2020-11-17 15:44:57 GMT 40.775791 -73.867180 0 118 11 0
2020-11-17 15:44:54 GMT 40.775871 -73.867340 0 121 11 0
2020-11-17 15:44:51 GMT 40.775921 -73.867531 0 121 12 0
2020-11-17 15:44:48 GMT 40.776001 -73.867668 0 87 9 0
2020-11-17 15:44:45 GMT 40.776070 -73.867859 0 53 6 0
2020-11-17 15:44:42 GMT 40.776051 -73.867973 0 40 10 0
2020-11-17 15:44:39 GMT 40.775959 -73.868073 0 36 13 0
2020-11-17 15:44:36 GMT 40.775810 -73.868179 0 63 11 0
2020-11-17 15:44:33 GMT 40.775749 -73.868370 0 111 9 0
2020-11-17 15:44:30 GMT 40.775791 -73.868553 0 118 13 0
2020-11-17 15:44:27 GMT 40.775848 -73.868729 0 122 14 0
2020-11-17 15:44:24 GMT 40.775951 -73.868927 0 118 15 0
2020-11-17 15:44:21 GMT 40.776031 -73.869164 0 126 17 0
2020-11-17 15:44:18 GMT 40.776169 -73.869377 0 128 16 0
2020-11-17 15:44:15 GMT 40.776310 -73.869629 0 116 16 0
2020-11-17 15:44:12 GMT 40.776409 -73.869888 0 114 15 0
2020-11-17 15:44:09 GMT 40.776539 -73.870140 0 121 15 0
2020-11-17 15:44:06 GMT 40.776760 -73.870644 0 124 14 0
2020-11-17 15:44:03 GMT 40.776852 -73.870827 0 123 14 0
2020-11-17 15:44:00 GMT 40.776852 -73.870827 0 116 17 0
2020-11-17 15:43:57 GMT 40.776958 -73.871094 0 127 15 0
2020-11-17 15:43:54 GMT 40.777081 -73.871300 0 118 14 0
2020-11-17 15:43:51 GMT 40.777180 -73.871529 0 121 15 0
2020-11-17 15:43:48 GMT 40.777309 -73.871758 0 114 11 0
2020-11-17 15:43:45 GMT 40.777390 -73.871933 0 118 12 0
2020-11-17 15:43:42 GMT 40.777451 -73.872108 0 120 12 0
2020-11-17 15:43:39 GMT 40.777561 -73.872322 0 117 13 0
2020-11-17 15:43:36 GMT 40.777649 -73.872520 0 98 13 0
2020-11-17 15:43:33 GMT 40.777721 -73.872940 0 99 11 0
2020-11-17 15:43:30 GMT 40.777721 -73.872940 0 91 15 0
2020-11-17 15:43:27 GMT 40.777760 -73.873207 0 83 13 0
2020-11-17 15:43:24 GMT 40.777748 -73.873421 0 83 10 0
2020-11-17 15:43:21 GMT 40.777729 -73.873619 0 74 10 0
2020-11-17 15:43:18 GMT 40.777699 -73.873833 0 71 14 0
2020-11-17 15:43:15 GMT 40.777580 -73.874229 0 71 13 0
2020-11-17 15:43:12 GMT 40.777580 -73.874229 0 72 13 0
2020-11-17 15:43:09 GMT 40.777531 -73.874443 0 67 13 0
2020-11-17 15:43:06 GMT 40.777470 -73.874687 0 60 13 0
2020-11-17 15:43:03 GMT 40.777390 -73.874840 0 56 15 0
2020-11-17 15:43:00 GMT 40.777290 -73.875061 0 41 14 0
2020-11-17 15:42:57 GMT 40.777180 -73.875229 0 23 13 0
2020-11-17 15:42:54 GMT 40.776989 -73.875313 0 40 11 0
2020-11-17 15:42:51 GMT 40.776901 -73.875481 0 24 12 0
2020-11-17 15:42:48 GMT 40.776718 -73.875557 0 36 12 0
2020-11-17 15:42:45 GMT 40.776619 -73.875664 0 33 10 0
2020-11-17 15:42:42 GMT 40.776489 -73.875778 0 28 15 0
2020-11-17 15:42:39 GMT 40.776192 -73.875977 0 62 9 0
2020-11-17 15:42:36 GMT 40.776192 -73.875977 0 76 9 0
2020-11-17 15:42:33 GMT 40.776119 -73.876099 0 83 9 0
2020-11-17 15:42:30 GMT 40.776100 -73.876251 0 88 7 0
2020-11-17 15:42:27 GMT 40.776100 -73.876381 0 84 9 0
2020-11-17 15:42:24 GMT 40.776100 -73.876518 0 77 12 0
2020-11-17 15:42:21 GMT 40.776081 -73.876701 0 59 12 0
2020-11-17 15:42:18 GMT 40.776020 -73.876900 0 35 12 0
2020-11-17 15:42:15 GMT 40.775890 -73.877113 0 27 9 0
2020-11-17 15:42:12 GMT 40.775791 -73.877197 0 23 10 0
2020-11-17 15:42:09 GMT 40.775631 -73.877296 0 47 7 0
2020-11-17 15:42:06 GMT 40.775551 -73.877342 0 69 6 0
2020-11-17 15:42:03 GMT 40.775501 -73.877441 0 68 10 0
2020-11-17 15:42:00 GMT 40.775421 -73.877632 0 75 10 0
2020-11-17 15:41:57 GMT 40.775459 -73.877907 0 114 13 0
2020-11-17 15:41:54 GMT 40.775459 -73.877907 0 124 14 0
2020-11-17 15:41:51 GMT 40.775539 -73.878159 0 148 14 0
2020-11-17 15:41:48 GMT 40.775681 -73.878258 0 154 15 0
2020-11-17 15:41:45 GMT 40.775909 -73.878349 0 183 11 0
2020-11-17 15:41:42 GMT 40.776100 -73.878349 0 210 15 0
2020-11-17 15:41:39 GMT 40.776321 -73.878220 0 211 20 0
2020-11-17 15:41:36 GMT 40.776588 -73.878014 0 210 27 128
2020-11-17 15:41:33 GMT 40.777000 -73.877678 0 211 34 128
2020-11-17 15:41:30 GMT 40.777519 -73.877243 0 212 64 32
2020-11-17 15:41:27 GMT 40.778271 -73.876617 0 211 74 32
2020-11-17 15:41:24 GMT 40.779148 -73.875900 0 212 86 32
2020-11-17 15:41:21 GMT 40.780201 -73.875031 0 212 108 -544
2020-11-17 15:41:18 GMT 40.781460 -73.874001 0 212 114 -544
2020-11-17 15:41:15 GMT 40.782810 -73.872879 25 212 121 -544
2020-11-17 15:41:12 GMT 40.784229 -73.871712 50 212 120 -544
2020-11-17 15:41:09 GMT 40.785641 -73.870491 100 211 120 -544
2020-11-17 15:41:06 GMT 40.787029 -73.869339 100 213 122 -544
2020-11-17 15:41:03 GMT 40.788490 -73.868156 150 211 120 -544
2020-11-17 15:41:00 GMT 40.789921 -73.866997 175 211 115 -544
2020-11-17 15:40:57 GMT 40.791271 -73.865891 200 211 119 -544
2020-11-17 15:40:54 GMT 40.792709 -73.864754 225 210 121 -544
2020-11-17 15:40:51 GMT 40.794090 -73.863541 250 212 119 -544
2020-11-17 15:40:48 GMT 40.795479 -73.862457 400 212 119 -544
2020-11-17 15:40:45 GMT 40.796902 -73.861290 400 212 118 -576
2020-11-17 15:40:42 GMT 40.798260 -73.860092 400 213 120 -576
2020-11-17 15:40:39 GMT 40.799721 -73.858917 500 211 119 -576
2020-11-17 15:40:36 GMT 40.801140 -73.857803 500 212 125 -576
2020-11-17 15:40:33 GMT 40.802582 -73.856613 500 212 123 -576
2020-11-17 15:40:30 GMT 40.804039 -73.855370 500 212 123 -576
2020-11-17 15:40:27 GMT 40.805462 -73.854202 575 213 126 -576
2020-11-17 15:40:24 GMT 40.806919 -73.852966 575 210 121 -576
2020-11-17 15:40:21 GMT 40.808350 -73.851860 600 212 123 -576
2020-11-17 15:40:18 GMT 40.811260 -73.849388 700 210 124 -576
2020-11-17 15:40:15 GMT 40.811260 -73.849388 700 213 126 -576
2020-11-17 15:40:12 GMT 40.812691 -73.848129 700 211 121 -576
2020-11-17 15:40:09 GMT 40.814129 -73.846962 800 210 127 -576
2020-11-17 15:40:06 GMT 40.815681 -73.845833 800 210 126 -576
2020-11-17 15:40:03 GMT 40.817150 -73.844513 800 212 124 -576
2020-11-17 15:40:00 GMT 40.818581 -73.843369 850 213 124 -576
2020-11-17 15:39:57 GMT 40.820061 -73.842140 900 212 118 -576
2020-11-17 15:39:54 GMT 40.821430 -73.840950 1,000 212 118 -576
2020-11-17 15:39:51 GMT 40.822842 -73.839783 1,000 211 119 -576
2020-11-17 15:39:48 GMT 40.825668 -73.837540 1,100 212 119 -576
2020-11-17 15:39:45 GMT 40.827068 -73.836327 1,100 211 123 -864
2020-11-17 15:39:42 GMT 40.827068 -73.836327 1,075 211 122 -864
2020-11-17 15:39:39 GMT 40.828522 -73.835159 1,075 211 124 -864
2020-11-17 15:39:36 GMT 40.829971 -73.833931 1,200 212 122 -864
2020-11-17 15:39:33 GMT 40.831421 -73.832764 1,200 211 123 -864
2020-11-17 15:39:30 GMT 40.832890 -73.831551 1,200 211 127 -864
2020-11-17 15:39:27 GMT 40.834351 -73.830368 1,225 210 124 -864
2020-11-17 15:39:24 GMT 40.835861 -73.829208 1,300 212 124 -864
2020-11-17 15:39:21 GMT 40.837341 -73.828011 1,300 212 122 -864
2020-11-17 15:39:18 GMT 40.838741 -73.826813 1,300 211 122 -864
2020-11-17 15:39:15 GMT 40.840210 -73.825661 1,400 211 123 -864
2020-11-17 15:39:12 GMT 40.841660 -73.824471 1,400 212 122 -864
2020-11-17 15:39:09 GMT 40.843128 -73.823242 1,500 211 123 -864
2020-11-17 15:39:06 GMT 40.844582 -73.822083 1,500 212 126 -864
2020-11-17 15:39:03 GMT 40.846008 -73.820839 1,600 211 126 -864
2020-11-17 15:39:00 GMT 40.847469 -73.819672 1,600 212 126 -864
2020-11-17 15:38:57 GMT 40.848991 -73.818413 1,600 212 127 -864
2020-11-17 15:38:54 GMT 40.850510 -73.817169 1,600 212 127 -864
2020-11-17 15:38:51 GMT 40.851990 -73.815948 1,600 212 128 -864
2020-11-17 15:38:48 GMT 40.853481 -73.814690 1,700 212 127 -864
2020-11-17 15:38:45 GMT 40.854950 -73.813408 1,700 212 132 -192
2020-11-17 15:38:42 GMT 40.856499 -73.812134 1,700 212 132 -192
2020-11-17 15:38:39 GMT 40.858040 -73.810791 1,800 212 135 -192
2020-11-17 15:38:36 GMT 40.859631 -73.809486 1,800 212 140 -192
2020-11-17 15:38:33 GMT 40.861252 -73.808090 1,800 212 139 -192
2020-11-17 15:38:30 GMT 40.862862 -73.806732 1,900 212 141 -192
2020-11-17 15:38:27 GMT 40.864510 -73.805328 1,900 213 146 -192
2020-11-17 15:38:24 GMT 40.866192 -73.803909 1,900 214 147 -192
2020-11-17 15:38:21 GMT 40.867920 -73.802399 1,900 214 149 -32
2020-11-17 15:38:18 GMT 40.869591 -73.800919 1,900 214 153 -32
2020-11-17 15:38:15 GMT 40.871361 -73.799332 1,900 213 160 -800
2020-11-17 15:38:12 GMT 40.873219 -73.797813 1,900 213 166 -800
2020-11-17 15:38:09 GMT 40.875061 -73.795982 1,900 208 157 -800
2020-11-17 15:38:06 GMT 40.876690 -73.795547 1,900 213 175 -800
2020-11-17 15:38:03 GMT 40.878502 -73.793533 2,000 217 174 -800
2020-11-17 15:38:00 GMT 40.880871 -73.790794 2,000 228 173 544
2020-11-17 15:37:57 GMT 40.882462 -73.790649 2,000 228 173 544
2020-11-17 15:37:54 GMT 40.884750 -73.789810 2,000 245 170 544
2020-11-17 15:37:46 GMT 40.892200 -73.787743 1,900 265 163 -384
2020-11-17 15:37:43 GMT 40.891800 -73.784241 2,000 279 194 0
2020-11-17 15:37:40 GMT 40.890999 -73.777229 2,000 279 194 0
2020-11-17 15:37:37 GMT 40.890999 -73.777229 1,875 268 159 -320
2020-11-17 15:37:34 GMT 40.890598 -73.773720 2,000 279 194 0
2020-11-17 15:37:30 GMT 40.890060 -73.769051 1,925 281 171 -128
2020-11-17 15:37:27 GMT 40.889660 -73.765541 2,000 279 194 0
2020-11-17 15:37:24 GMT 40.889259 -73.762039 1,975 284 174 -64
2020-11-17 15:37:21 GMT 40.888699 -73.758858 2,000 282 190 0
2020-11-17 15:37:18 GMT 40.888359 -73.755722 2,000 282 190 0
2020-11-17 15:37:15 GMT 40.887699 -73.752419 2,000 288 187 0
2020-11-17 15:37:12 GMT 40.887161 -73.749046 2,000 298 178 0
2020-11-17 15:37:09 GMT 40.886608 -73.745239 2,000 298 178 0
2020-11-17 15:37:06 GMT 40.885281 -73.742737 2,000 312 167 0
2020-11-17 15:37:03 GMT 40.884701 -73.739357 2,000 328 174 0
2020-11-17 15:37:00 GMT 40.883121 -73.735870 2,000 328 174 0
2020-11-17 15:36:57 GMT 40.879028 -73.732384 2,000 353 185 0
2020-11-17 15:36:54 GMT 40.879028 -73.732384 2,000 353 185 0
2020-11-17 15:36:51 GMT 40.876511 -73.731758 2,000 353 185 0
2020-11-17 15:36:48 GMT 40.874088 -73.730103 2,000 3 195 0
2020-11-17 15:36:45 GMT 40.872025 -73.729919 2,000 349 197 -64
2020-11-17 15:36:42 GMT 40.868534 -73.729248 2,000 16 224 64
2020-11-17 15:36:39 GMT 40.865971 -73.729233 2,000 16 224 64
2020-11-17 15:36:36 GMT 40.862881 -73.729988 2,000 19 221 64
2020-11-17 15:36:33 GMT 40.859951 -73.731232 2,000 19 221 64
2020-11-17 15:36:30 GMT 40.856323 -73.731873 2,000 22 211 -256
2020-11-17 15:36:27 GMT 40.853500 -73.733223 2,000 23 228 -128
2020-11-17 15:36:24 GMT 40.850929 -73.734871 2,000 26 205 -256
2020-11-17 15:36:21 GMT 40.848270 -73.736160 2,000 28 217 -256
2020-11-17 15:36:18 GMT 40.843170 -73.739822 2,000 27 246 -256
2020-11-17 15:36:15 GMT 40.843170 -73.739822 2,000 27 246 -256
2020-11-17 15:36:12 GMT 40.840240 -73.741859 2,000 26 254 -32
2020-11-17 15:36:09 GMT 40.837002 -73.744072 2,000 26 242 -32
2020-11-17 15:36:06 GMT 40.834068 -73.745941 2,000 26 253 -32
2020-11-17 15:36:00 GMT 40.827477 -73.750343 2,000 26 255 -128
2020-11-17 15:35:56 GMT 40.823776 -73.752808 2,000 26 258 -576
2020-11-17 15:35:53 GMT 40.821098 -73.754593 2,025 26 258 -576
2020-11-17 15:35:50 GMT 40.817413 -73.757080 2,900 28 262 -1024
2020-11-17 15:35:47 GMT 40.814255 -73.759209 2,125 27 258 -768
2020-11-17 15:35:44 GMT 40.810135 -73.761963 2,150 27 256 -1280
2020-11-17 15:35:41 GMT 40.807640 -73.763680 2,600 26 252 -256
2020-11-17 15:35:38 GMT 40.804459 -73.765800 2,600 27 252 -256
2020-11-17 15:35:35 GMT 40.801361 -73.767899 2,600 26 255 -256
2020-11-17 15:35:32 GMT 40.798248 -73.770012 3,000 26 257 -256
2020-11-17 15:35:29 GMT 40.794422 -73.772568 3,000 26 254 -256
2020-11-17 15:35:26 GMT 40.788738 -73.776413 3,000 28 255 -256
2020-11-17 15:35:23 GMT 40.788738 -73.776413 3,000 27 257 -256
2020-11-17 15:35:20 GMT 40.785580 -73.778801 3,000 27 260 -256
2020-11-17 15:35:17 GMT 40.782471 -73.781128 3,000 27 266 -256
2020-11-17 15:35:14 GMT 40.778915 -73.783691 3,000 31 265 -576
2020-11-17 15:35:11 GMT 40.776150 -73.785210 3,000 36 295 160
2020-11-17 15:35:08 GMT 40.772911 -73.788361 3,000 41 284 160
2020-11-17 15:35:05 GMT 40.769939 -73.791740 3,000 44 278 0
2020-11-17 15:35:02 GMT 40.764889 -73.799179 3,000 55 270 0
2020-11-17 15:34:59 GMT 40.764889 -73.799179 3,000 57 272 0
2020-11-17 15:34:56 GMT 40.762821 -73.803291 3,000 57 272 128
2020-11-17 15:34:53 GMT 40.760769 -73.807388 3,000 56 280 -64
2020-11-17 15:34:50 GMT 40.758739 -73.811661 3,000 56 271 -64
2020-11-17 15:34:47 GMT 40.754620 -73.819870 3,000 57 277 -64
2020-11-17 15:34:44 GMT 40.752491 -73.824249 3,000 57 284 416
2020-11-17 15:34:41 GMT 40.752491 -73.824249 3,000 57 271 416
2020-11-17 15:34:38 GMT 40.750431 -73.828499 3,000 57 280 416
2020-11-17 15:34:35 GMT 40.748371 -73.832787 3,000 57 280 416
2020-11-17 15:34:32 GMT 40.746281 -73.837051 3,000 57 278 416
2020-11-17 15:34:29 GMT 40.744221 -73.841301 3,000 57 275 0
2020-11-17 15:34:26 GMT 40.742069 -73.845573 3,000 57 275 0
2020-11-17 15:34:23 GMT 40.740101 -73.849739 3,000 57 282 0
2020-11-17 15:34:20 GMT 40.735939 -73.858292 3,025 57 275 0
2020-11-17 15:34:17 GMT 40.735939 -73.858292 3,025 57 277 0
2020-11-17 15:34:14 GMT 40.733910 -73.862427 3,000 57 280 0
2020-11-17 15:34:11 GMT 40.731831 -73.866737 3,000 57 274 0
2020-11-17 15:34:08 GMT 40.729801 -73.870888 3,000 57 275 -96
2020-11-17 15:34:05 GMT 40.727730 -73.875122 3,000 57 272 -96
2020-11-17 15:34:02 GMT 40.725731 -73.879242 3,000 57 277 -96
2020-11-17 15:33:59 GMT 40.723660 -73.883461 3,000 57 279 -96
2020-11-17 15:33:56 GMT 40.721561 -73.887756 3,000 57 276 -96
2020-11-17 15:33:53 GMT 40.717419 -73.896233 3,000 57 273 -96
2020-11-17 15:33:50 GMT 40.717419 -73.896233 3,000 58 279 -96
2020-11-17 15:33:47 GMT 40.715420 -73.900543 3,000 57 276 -96
2020-11-17 15:33:44 GMT 40.713360 -73.904778 3,000 57 281 -96
2020-11-17 15:33:41 GMT 40.711300 -73.908997 3,000 57 277 -96
2020-11-17 15:33:38 GMT 40.707100 -73.917679 3,000 57 275 -96
2020-11-17 15:33:35 GMT 40.707100 -73.917679 3,000 57 270 -96
2020-11-17 15:33:32 GMT 40.705070 -73.921921 3,000 57 271 -96
2020-11-17 15:33:29 GMT 40.703060 -73.926086 3,000 57 273 -96
2020-11-17 15:33:26 GMT 40.701019 -73.930283 3,000 57 278 -96
2020-11-17 15:33:23 GMT 40.698971 -73.934578 3,000 57 274 -96
2020-11-17 15:33:20 GMT 40.696941 -73.938721 3,000 57 280 -96
2020-11-17 15:33:17 GMT 40.692741 -73.947372 3,000 57 271 -96
2020-11-17 15:33:14 GMT 40.692741 -73.947372 3,000 57 269 -96
2020-11-17 15:33:11 GMT 40.690811 -73.951363 3,000 56 292 128
2020-11-17 15:33:08 GMT 40.688591 -73.955910 3,000 56 285 128
2020-11-17 15:33:05 GMT 40.686905 -73.959351 3,000 57 275 -128
2020-11-17 15:33:02 GMT 40.684662 -73.963928 3,000 57 275 -64
2020-11-17 15:32:59 GMT 40.682236 -73.968933 3,000 57 275 -64
2020-11-17 15:32:56 GMT 40.680183 -73.973190 3,000 57 274 -64
2020-11-17 15:32:53 GMT 40.677841 -73.978027 3,000 57 273 -192
2020-11-17 15:32:50 GMT 40.675919 -73.981995 3,000 57 273 -192
2020-11-17 15:32:45 GMT 40.673061 -73.987923 3,000 57 273 -64
2020-11-17 15:32:42 GMT 40.670643 -73.992920 3,000 57 273 -192
2020-11-17 15:32:39 GMT 40.669014 -73.996231 3,000 57 275 -256
2020-11-17 15:32:36 GMT 40.666122 -74.002197 3,050 57 276 -832
2020-11-17 15:32:33 GMT 40.661957 -74.010742 3,125 57 276 -1152
2020-11-17 15:32:29 GMT 40.661957 -74.010742 3,150 57 276 -1472
2020-11-17 15:32:25 GMT 40.659328 -74.016144 3,300 56 276 -1856
2020-11-17 15:32:22 GMT 40.657242 -74.020386 3,375 57 277 -1792
2020-11-17 15:32:19 GMT 40.655094 -74.024628 3,425 56 278 -1664
2020-11-17 15:32:16 GMT 40.653351 -74.028198 3,500 56 278 -1600
2020-11-17 15:32:13 GMT 40.651016 -74.032898 3,600 56 279 -1856
2020-11-17 15:32:10 GMT 40.648773 -74.037354 3,700 57 279 -1792
2020-11-17 15:32:07 GMT 40.646576 -74.041870 3,800 57 279 -1792
2020-11-17 15:32:04 GMT 40.644562 -74.046021 3,900 57 279 -1664
2020-11-17 15:32:00 GMT 40.641998 -74.051208 4,000 56 282 -1408
2020-11-17 15:31:57 GMT 40.639591 -74.055969 4,050 56 282 -1408
2020-11-17 15:31:54 GMT 40.637375 -74.060364 4,075 56 284 -1280
2020-11-17 15:31:51 GMT 40.635262 -74.064583 4,200 56 285 -1792
2020-11-17 15:31:48 GMT 40.633026 -74.069092 4,350 56 286 -2048
2020-11-17 15:31:45 GMT 40.631119 -74.072884 4,425 56 287 -2048
2020-11-17 15:31:42 GMT 40.628559 -74.078003 4,500 56 287 -1984
2020-11-17 15:31:38 GMT 40.625427 -74.084229 4,625 56 287 -1984
2020-11-17 15:31:34 GMT 40.622452 -74.090088 4,775 56 288 -2176
2020-11-17 15:31:31 GMT 40.619843 -74.095154 4,950 57 288 -1920
2020-11-17 15:31:26 GMT 40.616642 -74.101349 5,025 56 288 -2112
2020-11-17 15:31:22 GMT 40.613525 -74.107483 5,200 56 288 -1984
2020-11-17 15:31:19 GMT 40.611660 -74.111214 5,325 57 288 -1920
2020-11-17 15:31:16 GMT 40.609333 -74.116081 5,325 57 289 -1920
2020-11-17 15:31:12 GMT 40.606476 -74.122253 5,525 60 290 -1600
2020-11-17 15:31:09 GMT 40.604828 -74.126099 5,625 62 291 -1728
2020-11-17 15:31:06 GMT 40.602814 -74.131165 5,675 63 292 -1728
2020-11-17 15:31:03 GMT 40.601166 -74.135620 5,775 65 293 -1792
2020-11-17 15:31:00 GMT 40.599743 -74.139671 5,825 65 293 -1856
2020-11-17 15:30:57 GMT 40.597275 -74.146980 5,950 66 293 -2048
2020-11-17 15:30:52 GMT 40.594669 -74.154907 6,125 67 294 -1984
2020-11-17 15:30:49 GMT 40.593410 -74.158836 6,200 67 295 -1920
2020-11-17 15:30:46 GMT 40.591969 -74.163330 6,250 67 295 -1728
2020-11-17 15:30:42 GMT 40.589310 -74.171814 6,450 67 295 -2048
2020-11-17 15:30:38 GMT 40.588013 -74.175941 6,525 67 296 -2112
2020-11-17 15:30:35 GMT 40.584427 -74.187431 6,725 67 295 -2240
2020-11-17 15:30:32 GMT 40.584427 -74.187431 6,825 68 295 -2112
2020-11-17 15:30:26 GMT 40.581482 -74.197083 7,000 68 296 -2048
2020-11-17 15:30:23 GMT 40.579880 -74.202454 7,050 68 296 -1984
2020-11-17 15:30:20 GMT 40.578644 -74.206421 7,125 68 296 -1920
2020-11-17 15:30:16 GMT 40.576035 -74.215027 7,300 68 297 -1920
2020-11-17 15:30:13 GMT 40.574432 -74.220337 7,350 68 297 -1920
2020-11-17 15:30:10 GMT 40.573254 -74.224197 7,475 68 297 -1920
2020-11-17 15:30:07 GMT 40.569996 -74.234932 7,625 68 298 -1920
2020-11-17 15:30:04 GMT 40.569996 -74.234932 7,675 68 298 -1920
2020-11-17 15:30:01 GMT 40.568481 -74.239990 7,775 68 298 -1920
2020-11-17 15:29:55 GMT 40.565643 -74.249512 7,950 68 299 -2048
2020-11-17 15:29:52 GMT 40.564083 -74.254593 8,050 68 300 -2112
2020-11-17 15:29:49 GMT 40.562759 -74.258972 8,150 68 300 -2048
2020-11-17 15:29:46 GMT 40.561203 -74.264282 8,600 95 303 -1792
2020-11-17 15:29:43 GMT 40.559616 -74.269577 8,375 68 300 -2048
2020-11-17 15:29:40 GMT 40.557953 -74.275146 8,475 68 301 -1984
2020-11-17 15:29:37 GMT 40.556450 -74.280312 8,600 68 301 -1920
2020-11-17 15:29:33 GMT 40.554214 -74.287987 8,725 69 301 -1856
2020-11-17 15:29:29 GMT 40.552818 -74.292793 9,100 77 303 -1856
2020-11-17 15:29:25 GMT 40.550396 -74.301788 8,950 71 302 -1728
2020-11-17 15:29:22 GMT 40.549118 -74.307068 9,025 74 303 -1792
2020-11-17 15:29:19 GMT 40.548477 -74.310608 9,100 77 303 -1856
2020-11-17 15:29:15 GMT 40.547558 -74.318138 9,750 104 305 -1216
2020-11-17 15:29:12 GMT 40.547379 -74.323608 9,350 91 304 -1792
2020-11-17 15:29:09 GMT 40.547512 -74.328629 9,400 96 303 -1792
2020-11-17 15:29:04 GMT 40.548706 -74.338257 9,575 104 302 -1536
2020-11-17 15:29:01 GMT 40.549747 -74.343613 9,625 105 303 -1536
2020-11-17 15:28:58 GMT 40.550770 -74.348724 9,775 105 303 -1536
2020-11-17 15:28:55 GMT 40.552277 -74.356018 9,800 105 303 -1472
2020-11-17 15:28:52 GMT 40.553329 -74.361206 9,925 104 305 -1216
2020-11-17 15:28:48 GMT 40.554310 -74.365891 10,000 104 307 -704
2020-11-17 15:28:44 GMT 40.555801 -74.373413 10,000 104 311 -128
2020-11-17 15:28:38 GMT 40.558090 -74.384949 10,000 104 316 128
2020-11-17 15:28:34 GMT 40.559566 -74.392113 10,000 104 318 64
2020-11-17 15:28:31 GMT 40.560871 -74.398918 10,000 104 321 -64
2020-11-17 15:28:27 GMT 40.562363 -74.406342 10,000 104 321 64
2020-11-17 15:28:23 GMT 40.563904 -74.414246 10,000 104 320 0
2020-11-17 15:28:20 GMT 40.564728 -74.418152 10,000 104 319 -64
2020-11-17 15:28:17 GMT 40.565853 -74.423759 10,000 104 319 64
2020-11-17 15:28:14 GMT 40.567108 -74.429993 10,000 104 319 0
2020-11-17 15:28:11 GMT 40.568226 -74.435616 10,000 105 319 -128
2020-11-17 15:28:08 GMT 40.569580 -74.442139 10,000 104 320 0
2020-11-17 15:28:05 GMT 40.570274 -74.445541 10,000 104 320 64
2020-11-17 15:28:02 GMT 40.571594 -74.451904 10,000 104 320 64
2020-11-17 15:27:59 GMT 40.572647 -74.457214 10,000 104 320 -128
2020-11-17 15:27:56 GMT 40.574020 -74.463928 10,000 104 320 -64
2020-11-17 15:27:53 GMT 40.574936 -74.468506 10,000 104 319 0
2020-11-17 15:27:50 GMT 40.576447 -74.476013 10,000 104 319 64
2020-11-17 15:27:47 GMT 40.577362 -74.480530 10,000 104 319 64
2020-11-17 15:27:42 GMT 40.579262 -74.489861 10,000 104 320 64
2020-11-17 15:27:39 GMT 40.580246 -74.494751 10,000 105 319 64
2020-11-17 15:27:36 GMT 40.581619 -74.501404 10,000 104 320 -192
2020-11-17 15:27:32 GMT 40.583313 -74.509827 10,000 105 319 0
2020-11-17 15:27:29 GMT 40.584229 -74.514343 10,000 104 320 64
2020-11-17 15:27:25 GMT 40.585556 -74.520935 10,000 105 320 64
2020-11-17 15:27:21 GMT 40.587685 -74.531189 10,000 105 319 -128
2020-11-17 15:27:18 GMT 40.588257 -74.533752 10,000 105 319 0
2020-11-17 15:27:12 GMT 40.591095 -74.547241 10,000 105 320 0
2020-11-17 15:27:09 GMT 40.592342 -74.552910 10,000 105 320 0
2020-11-17 15:27:05 GMT 40.593739 -74.559464 10,000 105 320 -64
2020-11-17 15:27:01 GMT 40.595367 -74.567078 10,000 105 320 0
2020-11-17 15:26:58 GMT 40.596588 -74.572693 10,000 105 320 64
2020-11-17 15:26:54 GMT 40.598190 -74.580017 10,000 105 320 -128
2020-11-17 15:26:51 GMT 40.599792 -74.587524 10,000 106 320 64
2020-11-17 15:26:48 GMT 40.600395 -74.590240 10,000 106 320 64
2020-11-17 15:26:45 GMT 40.601807 -74.596619 10,000 106 320 64
2020-11-17 15:26:41 GMT 40.603840 -74.605904 10,000 106 320 64
2020-11-17 15:26:38 GMT 40.605190 -74.611961 10,000 106 320 64
2020-11-17 15:26:34 GMT 40.606819 -74.619453 10,000 106 320 -64
2020-11-17 15:26:31 GMT 40.607574 -74.622864 10,000 106 320 64
2020-11-17 15:26:28 GMT 40.608856 -74.628723 10,000 105 321 0
2020-11-17 15:26:25 GMT 40.610310 -74.635307 10,000 105 321 -128
2020-11-17 15:26:22 GMT 40.611374 -74.640137 10,000 105 321 -128
2020-11-17 15:26:19 GMT 40.612732 -74.646545 10,000 105 321 128
2020-11-17 15:26:16 GMT 40.613522 -74.650162 10,000 105 321 0
2020-11-17 15:26:13 GMT 40.614899 -74.656677 10,000 105 321 -64
2020-11-17 15:26:10 GMT 40.616318 -74.663269 10,000 105 320 64
2020-11-17 15:26:07 GMT 40.617645 -74.669434 10,000 105 320 -64
2020-11-17 15:26:02 GMT 40.619064 -74.676208 10,000 105 320 -64
2020-11-17 15:25:59 GMT 40.620483 -74.682922 10,000 105 319 -128
2020-11-17 15:25:56 GMT 40.621670 -74.688553 10,000 105 319 128
2020-11-17 15:25:53 GMT 40.622925 -74.694550 10,000 105 319 128
2020-11-17 15:25:50 GMT 40.624420 -74.701660 10,000 105 318 0
2020-11-17 15:25:47 GMT 40.625015 -74.704468 10,000 105 318 -64
2020-11-17 15:25:44 GMT 40.626415 -74.711029 10,000 105 318 0
2020-11-17 15:25:38 GMT 40.629116 -74.723511 10,000 105 319 64
2020-11-17 15:25:35 GMT 40.629910 -74.727257 10,000 105 319 0
2020-11-17 15:25:32 GMT 40.631287 -74.733582 10,000 105 319 -64
2020-11-17 15:25:28 GMT 40.632889 -74.740868 10,000 105 319 -64
2020-11-17 15:25:25 GMT 40.634331 -74.747543 10,000 106 319 64
2020-11-17 15:25:21 GMT 40.635494 -74.752846 10,000 106 320 64
2020-11-17 15:25:17 GMT 40.637497 -74.761841 10,000 106 321 -64
2020-11-17 15:25:14 GMT 40.640385 -74.774574 10,000 106 320 0
2020-11-17 15:25:07 GMT 40.642059 -74.782066 10,000 106 320 0
2020-11-17 15:25:04 GMT 40.642712 -74.785057 10,000 106 320 -64
2020-11-17 15:25:01 GMT 40.644150 -74.791321 10,000 106 320 64
2020-11-17 15:24:58 GMT 40.645412 -74.796982 10,000 106 320 64
2020-11-17 15:24:55 GMT 40.646900 -74.803596 10,000 106 319 0
2020-11-17 15:24:51 GMT 40.648392 -74.810280 10,000 106 320 64
2020-11-17 15:24:48 GMT 40.651276 -74.822884 10,000 106 318 0
2020-11-17 15:24:44 GMT 40.651276 -74.822884 10,000 106 318 0
2020-11-17 15:24:40 GMT 40.652710 -74.829224 10,000 106 318 -64
2020-11-17 15:24:37 GMT 40.654118 -74.835556 10,000 106 319 64
2020-11-17 15:24:31 GMT 40.657097 -74.849106 10,000 106 320 -64
2020-11-17 15:24:27 GMT 40.658340 -74.854675 10,000 106 320 -64
2020-11-17 15:24:24 GMT 40.659988 -74.862183 10,000 106 320 -64
2020-11-17 15:24:20 GMT 40.661194 -74.867706 10,000 106 321 64
2020-11-17 15:24:15 GMT 40.663147 -74.876404 10,000 106 320 64
2020-11-17 15:24:12 GMT 40.664978 -74.884705 10,000 106 320 64
2020-11-17 15:24:09 GMT 40.665802 -74.888428 10,000 106 320 64
2020-11-17 15:24:05 GMT 40.667709 -74.896919 10,000 106 320 0
2020-11-17 15:24:02 GMT 40.669144 -74.903381 10,000 106 320 0
2020-11-17 15:23:55 GMT 40.671574 -74.914207 10,000 106 320 -64
2020-11-17 15:23:52 GMT 40.674362 -74.926636 10,000 106 320 64
2020-11-17 15:23:48 GMT 40.674362 -74.926636 10,000 106 320 64
2020-11-17 15:23:45 GMT 40.675827 -74.933411 10,000 106 320 64
2020-11-17 15:23:41 GMT 40.677578 -74.941299 10,000 106 320 0
2020-11-17 15:23:38 GMT 40.678555 -74.945671 10,000 106 320 -64
2020-11-17 15:23:34 GMT 40.682095 -74.961403 10,000 106 321 64
2020-11-17 15:23:30 GMT 40.682095 -74.961403 10,000 106 321 64
2020-11-17 15:23:27 GMT 40.683117 -74.965958 10,000 106 320 0
2020-11-17 15:23:24 GMT 40.684467 -74.971954 10,000 106 320 0
2020-11-17 15:23:21 GMT 40.685772 -74.977882 10,000 106 320 0
2020-11-17 15:23:18 GMT 40.688370 -74.989441 10,000 106 319 0
2020-11-17 15:23:10 GMT 40.690521 -74.999268 10,000 106 319 0
2020-11-17 15:23:04 GMT 40.693966 -75.016144 10,025 104 320 -256
2020-11-17 15:23:01 GMT 40.693966 -75.016144 10,025 103 319 -64
2020-11-17 15:22:57 GMT 40.695129 -75.023636 10,025 98 318 128
2020-11-17 15:22:53 GMT 40.695827 -75.033752 10,000 93 319 192
2020-11-17 15:22:50 GMT 40.694847 -75.047920 10,000 82 322 64
2020-11-17 15:22:44 GMT 40.693733 -75.055786 10,000 79 328 64
2020-11-17 15:22:41 GMT 40.693733 -75.055786 10,000 79 333 -64
2020-11-17 15:22:38 GMT 40.693172 -75.059715 10,000 79 332 0
2020-11-17 15:22:35 GMT 40.692169 -75.066528 10,000 78 335 -64
2020-11-17 15:22:32 GMT 40.691025 -75.074341 10,000 79 338 0
2020-11-17 15:22:29 GMT 40.690247 -75.079407 10,000 79 338 0
2020-11-17 15:22:26 GMT 40.689560 -75.084229 10,000 79 338 -64
2020-11-17 15:22:22 GMT 40.688004 -75.094727 10,000 79 337 64
2020-11-17 15:22:19 GMT 40.687260 -75.099983 10,000 79 337 64
2020-11-17 15:22:14 GMT 40.685959 -75.108597 10,000 79 337 0
2020-11-17 15:22:11 GMT 40.685074 -75.114685 10,000 79 336 -64
2020-11-17 15:22:08 GMT 40.684250 -75.120483 10,000 79 336 -64
2020-11-17 15:22:03 GMT 40.682831 -75.130188 10,000 79 337 0
2020-11-17 15:22:00 GMT 40.681870 -75.136597 10,000 79 337 -64
2020-11-17 15:21:57 GMT 40.681114 -75.141800 10,000 79 337 -64
2020-11-17 15:21:51 GMT 40.678928 -75.156975 10,000 79 339 64
2020-11-17 15:21:47 GMT 40.678089 -75.162651 10,000 79 341 64
2020-11-17 15:21:43 GMT 40.676971 -75.170654 10,000 79 346 64
2020-11-17 15:21:40 GMT 40.675919 -75.178101 10,000 90 364 0
2020-11-17 15:21:36 GMT 40.674877 -75.185249 10,000 79 353 64
2020-11-17 15:21:33 GMT 40.673676 -75.193970 10,000 79 357 0
2020-11-17 15:21:27 GMT 40.671799 -75.207092 10,000 79 359 64
2020-11-17 15:21:23 GMT 40.671112 -75.212219 10,000 79 360 64
2020-11-17 15:21:20 GMT 40.669617 -75.223076 10,000 80 361 -128
2020-11-17 15:21:16 GMT 40.668919 -75.228256 10,000 80 361 -192
2020-11-17 15:21:13 GMT 40.668083 -75.235184 10,025 80 362 -128
2020-11-17 15:21:09 GMT 40.667130 -75.244385 10,025 83 363 64
2020-11-17 15:21:06 GMT 40.666763 -75.249695 10,000 86 363 64
2020-11-17 15:21:02 GMT 40.666779 -75.260719 10,000 93 364 64
2020-11-17 15:20:57 GMT 40.668091 -75.273254 10,000 102 365 -64
2020-11-17 15:20:54 GMT 40.668915 -75.277588 10,000 107 364 0
2020-11-17 15:20:51 GMT 40.670105 -75.282837 10,000 109 365 0
2020-11-17 15:20:48 GMT 40.672897 -75.291931 10,000 115 364 128
2020-11-17 15:20:45 GMT 40.674408 -75.295898 10,000 124 362 0
2020-11-17 15:20:42 GMT 40.676422 -75.300476 10,000 124 363 -64
2020-11-17 15:20:38 GMT 40.683769 -75.313278 10,000 171 342 128
2020-11-17 15:20:31 GMT 40.689423 -75.320435 10,000 140 357 64
2020-11-17 15:20:25 GMT 40.697689 -75.328384 10,000 149 353 0
2020-11-17 15:20:19 GMT 40.706589 -75.334229 10,000 155 351 64
2020-11-17 15:20:16 GMT 40.710342 -75.336060 10,000 160 348 64
2020-11-17 15:20:13 GMT 40.715927 -75.338074 10,000 171 342 128
2020-11-17 15:20:10 GMT 40.719681 -75.339050 10,000 171 342 128
2020-11-17 15:20:05 GMT 40.727875 -75.339966 10,000 179 340 0
2020-11-17 15:20:02 GMT 40.730988 -75.339905 10,000 184 337 -64
2020-11-17 15:19:59 GMT 40.736282 -75.339310 10,000 243 309 64
2020-11-17 15:19:55 GMT 40.742939 -75.337563 10,000 196 331 0
2020-11-17 15:19:51 GMT 40.748802 -75.335129 10,000 206 326 64
2020-11-17 15:19:47 GMT 40.754856 -75.331444 10,000 209 325 128
2020-11-17 15:19:44 GMT 40.758949 -75.328194 10,000 214 322 64
2020-11-17 15:19:41 GMT 40.762115 -75.325195 10,000 218 321 0
2020-11-17 15:19:38 GMT 40.764584 -75.322456 10,000 243 309 64
2020-11-17 15:19:34 GMT 40.769348 -75.316101 10,000 230 316 -64
2020-11-17 15:19:30 GMT 40.772732 -75.310341 10,000 236 313 64
2020-11-17 15:19:27 GMT 40.774704 -75.306152 10,000 239 311 64
2020-11-17 15:19:24 GMT 40.777153 -75.299728 10,000 250 307 256
2020-11-17 15:19:21 GMT 40.778503 -75.295227 10,000 252 307 192
2020-11-17 15:19:17 GMT 40.779922 -75.288696 10,000 261 305 -128
2020-11-17 15:19:14 GMT 40.781528 -75.275887 10,000 262 305 -256
2020-11-17 15:19:11 GMT 40.781528 -75.275887 10,000 262 305 -64
2020-11-17 15:19:07 GMT 40.782257 -75.269653 10,000 260 306 -256
2020-11-17 15:19:04 GMT 40.782925 -75.264839 10,000 259 306 -64
2020-11-17 15:19:01 GMT 40.783810 -75.258972 10,000 259 306 -64
2020-11-17 15:18:58 GMT 40.785580 -75.247299 10,000 259 306 -128
2020-11-17 15:18:55 GMT 40.785580 -75.247299 10,000 259 306 -192
2020-11-17 15:18:51 GMT 40.787674 -75.233315 10,075 259 308 -960
2020-11-17 15:18:47 GMT 40.787674 -75.233315 10,125 259 312 -1792
2020-11-17 15:18:44 GMT 40.788391 -75.228577 10,225 259 312 -1728
2020-11-17 15:18:41 GMT 40.789349 -75.222206 10,275 259 313 -1984
2020-11-17 15:18:38 GMT 40.790466 -75.214775 11,050 261 314 -1472
2020-11-17 15:18:35 GMT 40.791321 -75.209106 10,525 260 314 -2624
2020-11-17 15:18:31 GMT 40.792282 -75.202728 10,600 260 314 -2880
2020-11-17 15:18:27 GMT 40.793289 -75.195496 10,900 260 313 -3008
2020-11-17 15:18:24 GMT 40.794067 -75.189636 11,050 261 315 -1216
2020-11-17 15:18:21 GMT 40.794937 -75.182678 11,050 261 319 -512
2020-11-17 15:18:17 GMT 40.796333 -75.172203 11,550 260 327 -4736
2020-11-17 15:18:14 GMT 40.797318 -75.165466 11,250 260 328 -2688
2020-11-17 15:18:11 GMT 40.797318 -75.165466 11,275 260 328 -3328
2020-11-17 15:18:08 GMT 40.798325 -75.158386 11,675 260 328 -4480
2020-11-17 15:18:05 GMT 40.800198 -75.145546 11,900 260 326 -4992
2020-11-17 15:18:02 GMT 40.800198 -75.145546 12,050 260 324 -5248
2020-11-17 15:17:55 GMT 40.802216 -75.131226 12,725 260 318 -5312
2020-11-17 15:17:52 GMT 40.803360 -75.122864 13,075 260 316 -5632
2020-11-17 15:17:49 GMT 40.803360 -75.122864 13,100 260 313 -6144
2020-11-17 15:17:45 GMT 40.804367 -75.115356 13,675 260 311 -6528
2020-11-17 15:17:42 GMT 40.805099 -75.110229 13,825 260 311 -6464
2020-11-17 15:17:39 GMT 40.806015 -75.103394 14,225 260 312 -6464
2020-11-17 15:17:34 GMT 40.807571 -75.092163 14,925 260 313 -6336
2020-11-17 15:17:31 GMT 40.808350 -75.086243 15,200 260 313 -6144
2020-11-17 15:17:26 GMT 40.809494 -75.078003 15,650 260 316 -5568
2020-11-17 15:17:23 GMT 40.810112 -75.073700 15,825 260 316 -5504
2020-11-17 15:17:20 GMT 40.811005 -75.067261 16,125 260 318 -5440
2020-11-17 15:17:17 GMT 40.811920 -75.060425 16,675 260 321 -5568
2020-11-17 15:17:13 GMT 40.812790 -75.054138 16,675 260 322 -5696
2020-11-17 15:17:10 GMT 40.813698 -75.047485 16,850 260 322 -5696
2020-11-17 15:17:05 GMT 40.814941 -75.038635 17,650 260 324 -6080
2020-11-17 15:17:02 GMT 40.815857 -75.031677 17,900 260 324 -6272
2020-11-17 15:16:58 GMT 40.816769 -75.024948 18,450 260 323 -6464
2020-11-17 15:16:55 GMT 40.817699 -75.018143 18,925 260 323 -6400
2020-11-17 15:16:52 GMT 40.818352 -75.013397 19,000 260 325 -5376
2020-11-17 15:16:49 GMT 40.819191 -75.007095 19,200 260 326 -4928
2020-11-17 15:16:46 GMT 40.819977 -75.001343 19,400 260 326 -4544
2020-11-17 15:16:43 GMT 40.821518 -74.989929 19,725 260 325 -4096
2020-11-17 15:16:40 GMT 40.821518 -74.989929 20,025 260 325 -3200
2020-11-17 15:16:37 GMT 40.822495 -74.982941 20,100 260 326 -2624
2020-11-17 15:16:34 GMT 40.823273 -74.977173 20,175 260 326 -2176
2020-11-17 15:16:31 GMT 40.825104 -74.963684 20,300 260 328 -1536
2020-11-17 15:16:27 GMT 40.825104 -74.963684 20,325 260 329 -1216
2020-11-17 15:16:24 GMT 40.826591 -74.952972 20,425 260 332 -1408
2020-11-17 15:16:18 GMT 40.827255 -74.947815 20,475 260 333 -1920
2020-11-17 15:16:15 GMT 40.828262 -74.940552 20,650 260 333 -2944
2020-11-17 15:16:12 GMT 40.828812 -74.936584 20,950 260 333 -3392
2020-11-17 15:16:09 GMT 40.829910 -74.928589 21,275 260 333 -3392
2020-11-17 15:16:06 GMT 40.830688 -74.922577 21,175 260 334 -3136
2020-11-17 15:16:03 GMT 40.831512 -74.916565 21,300 260 334 -3072
2020-11-17 15:16:00 GMT 40.832428 -74.910095 21,475 260 335 -2752
2020-11-17 15:15:56 GMT 40.833710 -74.900391 21,625 260 336 -2432
2020-11-17 15:15:53 GMT 40.834396 -74.895569 21,700 260 338 -1984
2020-11-17 15:15:49 GMT 40.835495 -74.887390 21,875 260 340 -1216
2020-11-17 15:15:45 GMT 40.836460 -74.880440 21,925 260 345 -64
2020-11-17 15:15:42 GMT 40.837208 -74.874695 21,925 260 343 -320
2020-11-17 15:15:38 GMT 40.838554 -74.864769 21,925 260 345 -128
2020-11-17 15:15:35 GMT 40.839249 -74.859619 21,950 260 345 -128
2020-11-17 15:15:32 GMT 40.840073 -74.853577 21,950 260 345 -128
2020-11-17 15:15:29 GMT 40.841080 -74.846130 21,950 260 345 -128
2020-11-17 15:15:26 GMT 40.841766 -74.841187 21,950 260 345 -128
2020-11-17 15:15:23 GMT 40.842636 -74.834534 21,950 260 344 -128
2020-11-17 15:15:20 GMT 40.843643 -74.827332 21,950 260 344 -128
2020-11-17 15:15:16 GMT 40.844879 -74.818176 21,975 260 344 -128
2020-11-17 15:15:13 GMT 40.845520 -74.813232 21,950 260 344 -128
2020-11-17 15:15:10 GMT 40.846283 -74.807846 21,975 260 344 -128
2020-11-17 15:15:07 GMT 40.846981 -74.802727 21,975 260 344 -128
2020-11-17 15:15:03 GMT 40.848953 -74.788208 21,975 260 345 -128
2020-11-17 15:15:00 GMT 40.848953 -74.788208 21,975 260 345 -128
2020-11-17 15:14:57 GMT 40.850143 -74.779297 22,000 260 345 -64
2020-11-17 15:14:53 GMT 40.851357 -74.770393 22,000 260 346 64
2020-11-17 15:14:50 GMT 40.852009 -74.765396 22,000 260 347 -384
2020-11-17 15:14:47 GMT 40.852753 -74.760132 22,025 260 347 -576
2020-11-17 15:14:43 GMT 40.854675 -74.745789 22,100 260 344 1216
2020-11-17 15:14:40 GMT 40.854675 -74.745789 22,100 261 347 64
2020-11-17 15:14:37 GMT 40.855637 -74.738281 22,075 260 345 832
2020-11-17 15:14:34 GMT 40.856384 -74.732941 22,000 260 343 1344
2020-11-17 15:14:31 GMT 40.857365 -74.725693 21,975 260 342 1792
2020-11-17 15:14:28 GMT 40.858246 -74.718956 21,825 260 342 2240
2020-11-17 15:14:25 GMT 40.858978 -74.713562 21,725 260 342 2240
2020-11-17 15:14:22 GMT 40.859390 -74.710327 21,700 260 342 2304
2020-11-17 15:14:19 GMT 40.861320 -74.695923 21,425 261 343 2496
2020-11-17 15:14:16 GMT 40.861320 -74.695923 21,400 261 343 2432
2020-11-17 15:14:12 GMT 40.862366 -74.688049 21,225 261 343 2368
2020-11-17 15:14:09 GMT 40.863235 -74.681641 21,100 261 344 2176
2020-11-17 15:14:06 GMT 40.864300 -74.673637 20,825 261 342 1984
2020-11-17 15:14:01 GMT 40.865433 -74.665100 20,900 261 343 1920
2020-11-17 15:13:58 GMT 40.866119 -74.659973 20,800 261 343 1984
2020-11-17 15:13:55 GMT 40.867081 -74.652710 20,650 261 342 1984
2020-11-17 15:13:52 GMT 40.867950 -74.645996 20,575 261 342 1984
2020-11-17 15:13:49 GMT 40.868675 -74.640617 20,525 261 341 1984
2020-11-17 15:13:46 GMT 40.870331 -74.628113 20,300 261 341 2048
2020-11-17 15:13:43 GMT 40.870331 -74.628113 20,225 261 339 2112
2020-11-17 15:13:40 GMT 40.870972 -74.623169 20,125 261 339 2240
2020-11-17 15:13:37 GMT 40.872120 -74.614456 20,025 261 338 2368
2020-11-17 15:13:34 GMT 40.872959 -74.608032 19,975 261 338 2368
2020-11-17 15:13:30 GMT 40.873672 -74.602661 19,850 261 338 2432
2020-11-17 15:13:27 GMT 40.874493 -74.596542 19,575 261 339 2496
2020-11-17 15:13:24 GMT 40.875412 -74.589600 19,525 261 339 2624
2020-11-17 15:13:20 GMT 40.876728 -74.579376 19,300 261 339 3008
2020-11-17 15:13:17 GMT 40.877335 -74.574890 19,125 261 340 3008
2020-11-17 15:13:14 GMT 40.878124 -74.568764 19,050 261 341 2944
2020-11-17 15:13:10 GMT 40.879337 -74.559715 18,825 261 342 2496
2020-11-17 15:13:07 GMT 40.879940 -74.554718 18,650 261 342 2048
2020-11-17 15:13:04 GMT 40.880779 -74.548225 18,575 261 342 1984
2020-11-17 15:13:00 GMT 40.881958 -74.539429 18,450 261 341 2176
2020-11-17 15:12:57 GMT 40.882828 -74.532501 18,375 261 341 2304
2020-11-17 15:12:54 GMT 40.883560 -74.527100 18,250 261 342 2368
2020-11-17 15:12:50 GMT 40.885342 -74.513397 18,050 261 342 2496
2020-11-17 15:12:47 GMT 40.885342 -74.513397 18,000 261 342 2496
2020-11-17 15:12:44 GMT 40.886318 -74.506157 17,725 261 343 2432
2020-11-17 15:12:41 GMT 40.886810 -74.502319 17,725 261 343 2432
2020-11-17 15:12:38 GMT 40.887817 -74.494934 17,575 261 343 2304
2020-11-17 15:12:35 GMT 40.888599 -74.488739 17,550 261 343 2240
2020-11-17 15:12:31 GMT 40.889969 -74.478455 17,325 261 343 1856
2020-11-17 15:12:28 GMT 40.890461 -74.474693 17,250 261 343 1728
2020-11-17 15:12:25 GMT 40.892090 -74.462334 17,100 261 343 1344
2020-11-17 15:12:22 GMT 40.892899 -74.456177 17,025 261 343 1216
2020-11-17 15:12:19 GMT 40.893719 -74.449974 17,025 261 342 960
2020-11-17 15:12:16 GMT 40.893719 -74.449974 16,975 261 341 320
2020-11-17 15:12:13 GMT 40.894791 -74.441795 16,975 261 339 0
2020-11-17 15:12:10 GMT 40.895187 -74.438904 16,975 261 339 0
2020-11-17 15:12:07 GMT 40.896187 -74.431252 16,975 261 339 64
2020-11-17 15:12:04 GMT 40.897118 -74.423943 16,975 261 339 64
2020-11-17 15:12:00 GMT 40.897911 -74.418076 16,975 261 339 64
2020-11-17 15:11:57 GMT 40.898979 -74.409904 16,975 261 339 64
2020-11-17 15:11:54 GMT 40.899632 -74.405029 16,975 261 339 192
2020-11-17 15:11:51 GMT 40.900635 -74.397400 16,950 261 339 256
2020-11-17 15:11:48 GMT 40.901505 -74.390747 16,950 261 339 256
2020-11-17 15:11:45 GMT 40.902100 -74.386246 16,950 261 339 1088
2020-11-17 15:11:42 GMT 40.902969 -74.379333 16,925 261 339 704
2020-11-17 15:11:39 GMT 40.903915 -74.372322 16,875 261 339 1216
2020-11-17 15:11:36 GMT 40.904518 -74.367455 16,825 261 339 1408
2020-11-17 15:11:33 GMT 40.905357 -74.361084 16,750 261 338 1792
2020-11-17 15:11:30 GMT 40.906082 -74.355591 16,675 261 337 2048
2020-11-17 15:11:27 GMT 40.906849 -74.349663 16,550 261 336 2432
2020-11-17 15:11:23 GMT 40.908051 -74.340332 16,325 261 336 2560
2020-11-17 15:11:20 GMT 40.908920 -74.333740 16,225 261 336 2560
2020-11-17 15:11:16 GMT 40.910011 -74.325256 16,050 261 336 2432
2020-11-17 15:11:12 GMT 40.910805 -74.318825 15,925 261 335 2368
2020-11-17 15:11:09 GMT 40.911549 -74.313087 15,800 261 335 2304
2020-11-17 15:11:06 GMT 40.912575 -74.305092 15,675 261 334 2368
2020-11-17 15:11:02 GMT 40.913452 -74.298157 15,300 261 333 2496
2020-11-17 15:10:59 GMT 40.914345 -74.291298 15,375 261 333 2624
2020-11-17 15:10:56 GMT 40.914917 -74.286926 15,200 262 332 2496
2020-11-17 15:10:53 GMT 40.915646 -74.281059 15,175 262 333 2432
2020-11-17 15:10:50 GMT 40.916298 -74.274445 15,050 264 332 2368
2020-11-17 15:10:47 GMT 40.916931 -74.266907 14,900 265 331 2368
2020-11-17 15:10:44 GMT 40.917274 -74.261711 14,750 267 330 2624
2020-11-17 15:10:41 GMT 40.917526 -74.257080 14,675 267 330 2624
2020-11-17 15:10:38 GMT 40.917755 -74.250793 14,250 271 329 2624
2020-11-17 15:10:35 GMT 40.917881 -74.242981 14,375 271 329 2624
2020-11-17 15:10:31 GMT 40.917881 -74.235741 14,225 272 329 2624
2020-11-17 15:10:28 GMT 40.917789 -74.229439 14,050 273 328 2496
2020-11-17 15:10:25 GMT 40.917648 -74.224510 13,975 274 328 2496
2020-11-17 15:10:22 GMT 40.917297 -74.217712 13,900 275 328 2496
2020-11-17 15:10:19 GMT 40.916977 -74.212952 13,775 276 327 2496
2020-11-17 15:10:16 GMT 40.916336 -74.205139 13,625 278 325 2496
2020-11-17 15:10:13 GMT 40.915928 -74.200661 13,475 278 325 2496
2020-11-17 15:10:10 GMT 40.915329 -74.194702 13,325 278 324 2560
2020-11-17 15:10:07 GMT 40.914047 -74.182129 13,175 278 324 2560
2020-11-17 15:10:04 GMT 40.914047 -74.182129 13,075 278 323 2560
2020-11-17 15:10:01 GMT 40.913315 -74.174316 12,900 278 322 2624
2020-11-17 15:09:55 GMT 40.911831 -74.158340 12,625 277 321 2432
2020-11-17 15:09:52 GMT 40.911831 -74.158340 12,575 277 320 2368
2020-11-17 15:09:48 GMT 40.911209 -74.151733 12,500 277 320 2304
2020-11-17 15:09:44 GMT 40.910477 -74.143982 12,300 278 316 1792
2020-11-17 15:09:41 GMT 40.909973 -74.138611 12,225 278 315 1536
2020-11-17 15:09:38 GMT 40.909363 -74.132118 12,125 278 311 1088
2020-11-17 15:09:33 GMT 40.908615 -74.124634 11,800 278 299 1088
2020-11-17 15:09:30 GMT 40.907822 -74.116089 11,975 278 302 1024
2020-11-17 15:09:27 GMT 40.907406 -74.112083 11,950 278 299 1088
2020-11-17 15:09:24 GMT 40.906754 -74.105530 11,875 278 292 960
2020-11-17 15:09:21 GMT 40.906288 -74.100533 11,825 278 292 960
2020-11-17 15:09:17 GMT 40.905624 -74.093872 11,775 278 288 1088
2020-11-17 15:09:12 GMT 40.904663 -74.084167 11,700 278 279 1024
2020-11-17 15:09:09 GMT 40.904251 -74.080139 11,675 278 279 1024
2020-11-17 15:09:06 GMT 40.903702 -74.074890 11,600 278 274 1088
2020-11-17 15:09:03 GMT 40.903290 -74.070862 11,575 278 270 1088
2020-11-17 15:09:00 GMT 40.902145 -74.059998 11,275 278 259 2816
2020-11-17 15:08:56 GMT 40.902145 -74.059998 11,350 278 261 2432
2020-11-17 15:08:53 GMT 40.901138 -74.049866 11,100 278 258 3136
2020-11-17 15:08:50 GMT 40.900658 -74.045166 10,850 278 256 3328
2020-11-17 15:08:47 GMT 40.899914 -74.037743 10,725 278 255 3520
2020-11-17 15:08:43 GMT 40.899914 -74.037743 10,700 278 255 3712
2020-11-17 15:08:40 GMT 40.899494 -74.033432 9,775 278 254 3840
2020-11-17 15:08:36 GMT 40.898849 -74.026978 9,975 278 252 3840
2020-11-17 15:08:33 GMT 40.898575 -74.024536 9,975 278 251 3904
2020-11-17 15:08:30 GMT 40.898026 -74.019104 9,875 278 251 3968
2020-11-17 15:08:27 GMT 40.897568 -74.014771 9,375 278 247 4224
2020-11-17 15:08:24 GMT 40.897018 -74.009460 9,375 278 248 4096
2020-11-17 15:08:21 GMT 40.896465 -74.004280 9,175 278 247 4224
2020-11-17 15:08:18 GMT 40.896095 -74.000664 9,075 278 246 4288
2020-11-17 15:08:15 GMT 40.895691 -73.996887 8,950 278 246 4224
2020-11-17 15:08:12 GMT 40.895119 -73.991737 8,525 279 244 4352
2020-11-17 15:08:09 GMT 40.894592 -73.987305 8,375 280 244 4288
2020-11-17 15:08:05 GMT 40.893631 -73.980286 8,025 283 243 4672
2020-11-17 15:08:02 GMT 40.892929 -73.976501 7,825 285 242 4736
2020-11-17 15:07:59 GMT 40.892368 -73.974258 7,625 291 243 5120
2020-11-17 15:07:56 GMT 40.890881 -73.969452 7,425 295 243 5440
2020-11-17 15:07:53 GMT 40.888962 -73.964844 7,075 303 247 5440
2020-11-17 15:07:47 GMT 40.884129 -73.957092 4,400 327 248 1888
2020-11-17 15:07:44 GMT 40.879028 -73.955589 4,400 327 248 1888
2020-11-17 15:07:41 GMT 40.876110 -73.953194 5,925 330 263 4672
2020-11-17 15:07:38 GMT 40.873180 -73.950783 4,400 327 248 1888
2020-11-17 15:07:35 GMT 40.870258 -73.948380 4,400 327 248 1888
2020-11-17 15:07:32 GMT 40.867340 -73.945976 4,400 327 248 1888
2020-11-17 15:07:29 GMT 40.864410 -73.943581 4,600 331 261 4224
2020-11-17 15:07:26 GMT 40.861488 -73.941177 4,400 327 248 1888
2020-11-17 15:07:23 GMT 40.858570 -73.938766 4,400 327 248 1888
2020-11-17 15:07:20 GMT 40.855640 -73.936371 4,400 327 248 1888
2020-11-17 15:07:17 GMT 40.852558 -73.934502 4,350 331 244 1920
2020-11-17 15:07:14 GMT 40.849709 -73.932007 4,200 327 246 1888
2020-11-17 15:07:11 GMT 40.846668 -73.929070 4,000 328 226 1888
2020-11-17 15:07:08 GMT 40.843788 -73.926613 4,000 328 219 352
2020-11-17 15:07:05 GMT 40.841179 -73.924530 4,000 328 219 352
2020-11-17 15:07:02 GMT 40.838402 -73.922272 3,800 329 212 352
2020-11-17 15:06:59 GMT 40.833248 -73.918121 3,500 329 207 352
2020-11-17 15:06:56 GMT 40.833248 -73.918121 3,500 330 205 352
2020-11-17 15:06:53 GMT 40.830719 -73.916222 3,200 329 201 352
2020-11-17 15:06:50 GMT 40.828270 -73.914513 3,200 328 202 352
2020-11-17 15:06:47 GMT 40.825901 -73.912613 2,700 329 209 352
2020-11-17 15:06:44 GMT 40.823429 -73.910683 2,700 329 212 352
2020-11-17 15:06:41 GMT 40.820850 -73.908600 2,700 330 209 352
2020-11-17 15:06:38 GMT 40.818390 -73.906837 2,650 331 210 352
2020-11-17 15:06:35 GMT 40.815868 -73.905006 2,275 330 210 352
2020-11-17 15:06:32 GMT 40.813259 -73.903099 2,275 330 204 352
2020-11-17 15:06:29 GMT 40.810799 -73.901260 2,275 331 200 352
2020-11-17 15:06:26 GMT 40.808441 -73.899567 2,100 331 194 352
2020-11-17 15:06:23 GMT 40.806091 -73.897873 2,000 331 185 2080
2020-11-17 15:06:20 GMT 40.803822 -73.896179 2,000 331 177 2080
2020-11-17 15:06:17 GMT 40.801689 -73.894638 1,800 331 171 2080
2020-11-17 15:06:14 GMT 40.799500 -73.893112 1,800 330 160 2080
2020-11-17 15:06:11 GMT 40.797569 -73.891693 1,775 330 159 2080
2020-11-17 15:06:08 GMT 40.795670 -73.890167 1,775 328 165 -64
2020-11-17 15:06:05 GMT 40.793671 -73.888771 1,500 329 155 -64
2020-11-17 15:06:02 GMT 40.791870 -73.887299 1,200 332 155 -64
2020-11-17 15:05:59 GMT 40.789989 -73.885880 1,000 333 157 -64
2020-11-17 15:05:56 GMT 40.788139 -73.884613 1,000 332 156 -64
2020-11-17 15:05:53 GMT 40.786289 -73.883278 875 327 154 -64
2020-11-17 15:05:50 GMT 40.783150 -73.879646 650 307 149 -64
2020-11-17 15:05:47 GMT 40.783150 -73.879646 525 306 142 -64
2020-11-17 15:05:44 GMT 40.781971 -73.877548 400 302 153 -64
2020-11-17 15:05:41 GMT 40.780830 -73.875290 300 303 149 -64
2020-11-17 15:05:38 GMT 40.779671 -73.873032 100 302 152 -64
2020-11-17 15:05:35 GMT 40.778561 -73.870728 0 301 150 -64
2020-11-17 15:05:32 GMT 40.777500 -73.868431 0 301 148 -64
2020-11-17 15:05:29 GMT 40.776489 -73.866318 0 301 132 -64
2020-11-17 15:05:26 GMT 40.775551 -73.864403 0 302 116 -64
2020-11-17 15:05:23 GMT 40.774731 -73.862663 0 302 96 -64
2020-11-17 15:05:20 GMT 40.774010 -73.861183 0 301 86 -64
2020-11-17 15:05:17 GMT 40.773441 -73.859909 0 301 74 288
2020-11-17 15:05:14 GMT 40.772942 -73.858887 0 303 45 0
2020-11-17 15:05:11 GMT 40.772560 -73.858162 0 302 14 0
2020-11-17 15:05:08 GMT 40.772400 -73.857811 0 301 6 0
2020-11-17 15:05:05 GMT 40.772339 -73.857681 0 301 0 0
2020-11-17 15:05:02 GMT 40.772331 -73.857643 0 301 2 0
2020-11-17 15:04:59 GMT 40.772350 -73.857613 0 301 0 0
2020-11-17 15:04:56 GMT 40.772350 -73.857628 0 301 0 0
2020-11-17 15:04:53 GMT 40.772362 -73.857651 0 301 2 0
2020-11-17 15:04:44 GMT 40.772350 -73.857620 0 301 0 0
2020-11-17 15:04:41 GMT 40.772362 -73.857620 0 301 0 0
2020-11-17 15:04:38 GMT 40.772339 -73.857597 0 301 3 0
2020-11-17 15:04:35 GMT 40.772339 -73.857689 0 301 0 0
2020-11-17 15:04:32 GMT 40.772308 -73.857559 0 292 8 0
2020-11-17 15:04:29 GMT 40.772308 -73.857559 0 304 6 0
2020-11-17 15:04:26 GMT 40.772251 -73.857399 0 311 5 0
2020-11-17 15:04:23 GMT 40.772202 -73.857353 0 11 8 0
2020-11-17 15:04:20 GMT 40.772099 -73.857361 0 15 8 0
2020-11-17 15:04:17 GMT 40.771992 -73.857399 0 32 9 0
2020-11-17 15:04:14 GMT 40.771889 -73.857498 0 45 7 0
2020-11-17 15:04:11 GMT 40.771721 -73.857697 0 42 7 0
2020-11-17 15:04:08 GMT 40.771721 -73.857697 0 50 7 0
2020-11-17 15:04:05 GMT 40.771648 -73.857788 0 62 5 0
2020-11-17 15:04:02 GMT 40.771591 -73.857857 0 76 3 0
2020-11-17 15:03:59 GMT 40.771549 -73.857910 0 80 4 0
2020-11-17 15:03:56 GMT 40.771530 -73.857971 0 82 2 0
2020-11-17 15:03:53 GMT 40.771488 -73.857986 0 82 0 0
2020-11-17 15:03:50 GMT 40.771481 -73.858002 0 82 0 0
2020-11-17 15:03:46 GMT 40.771488 -73.858009 0 82 0 0
2020-11-17 15:03:43 GMT 40.771500 -73.858009 0 82 0 0
2020-11-17 15:03:40 GMT 40.771500 -73.858002 0 82 0 0
2020-11-17 15:03:36 GMT 40.771500 -73.858009 0 82 1 0
2020-11-17 15:03:33 GMT 40.771488 -73.858002 0 82 0 0
2020-11-17 15:03:24 GMT 40.771500 -73.858002 0 82 0 0
2020-11-17 15:03:09 GMT 40.771500 -73.858002 0 82 0 0
2020-11-17 15:03:06 GMT 40.771500 -73.857986 0 82 0 0
2020-11-17 15:03:03 GMT 40.771511 -73.857986 0 82 0 0
2020-11-17 15:03:00 GMT 40.771500 -73.857979 0 82 0 0
2020-11-17 15:02:57 GMT 40.771500 -73.857964 0 82 0 0
2020-11-17 15:02:54 GMT 40.771500 -73.858047 0 77 3 0
2020-11-17 15:02:51 GMT 40.771500 -73.858047 0 92 4 0
2020-11-17 15:02:48 GMT 40.771481 -73.858109 0 100 2 0
2020-11-17 15:02:45 GMT 40.771469 -73.858139 0 104 5 0
2020-11-17 15:02:42 GMT 40.771488 -73.858192 0 111 6 0
2020-11-17 15:02:39 GMT 40.771561 -73.858360 0 123 6 0
2020-11-17 15:02:33 GMT 40.771591 -73.858490 0 122 7 0
2020-11-17 15:02:30 GMT 40.771641 -73.858597 0 130 6 0
2020-11-17 15:02:27 GMT 40.771702 -73.858681 0 125 6 0
2020-11-17 15:02:24 GMT 40.771770 -73.858772 0 115 9 0
2020-11-17 15:02:21 GMT 40.771801 -73.858932 0 120 9 0
2020-11-17 15:02:18 GMT 40.771870 -73.859070 0 126 10 0
2020-11-17 15:02:15 GMT 40.771961 -73.859192 0 117 10 0
2020-11-17 15:02:12 GMT 40.772018 -73.859352 0 121 9 0
2020-11-17 15:02:09 GMT 40.772079 -73.859489 0 120 12 0
2020-11-17 15:02:06 GMT 40.772171 -73.859680 0 119 11 0
2020-11-17 15:02:03 GMT 40.772240 -73.859848 0 124 10 0
2020-11-17 15:02:00 GMT 40.772320 -73.859993 0 122 12 0
2020-11-17 15:01:57 GMT 40.772411 -73.860199 0 127 12 0
2020-11-17 15:01:54 GMT 40.772499 -73.860382 0 125 11 0
2020-11-17 15:01:51 GMT 40.772598 -73.860542 0 118 12 0
2020-11-17 15:01:48 GMT 40.772678 -73.860733 0 123 12 0
2020-11-17 15:01:45 GMT 40.772770 -73.860901 0 119 12 0
2020-11-17 15:01:42 GMT 40.772861 -73.861130 0 125 12 0
2020-11-17 15:01:39 GMT 40.772961 -73.861313 0 119 12 0
2020-11-17 15:01:36 GMT 40.773029 -73.861504 0 126 10 0
2020-11-17 15:01:33 GMT 40.773102 -73.861656 0 131 10 0
2020-11-17 15:01:30 GMT 40.773190 -73.861794 0 133 13 0
2020-11-17 15:01:27 GMT 40.773300 -73.861961 0 89 10 0
2020-11-17 15:01:24 GMT 40.773380 -73.862160 0 64 11 0
2020-11-17 15:01:21 GMT 40.773319 -73.862343 0 62 10 0
2020-11-17 15:01:18 GMT 40.773281 -73.862503 0 58 14 0
2020-11-17 15:01:15 GMT 40.773121 -73.862907 0 86 10 0
2020-11-17 15:01:12 GMT 40.773121 -73.862907 0 91 9 0
2020-11-17 15:01:09 GMT 40.773071 -73.863083 0 123 7 0
2020-11-17 15:01:06 GMT 40.773079 -73.863197 0 126 12 0
2020-11-17 15:01:03 GMT 40.773178 -73.863380 0 127 10 0
2020-11-17 15:01:00 GMT 40.773338 -73.863647 0 119 9 0
2020-11-17 15:00:57 GMT 40.773418 -73.863800 0 117 8 0
2020-11-17 15:00:54 GMT 40.773418 -73.863800 0 112 7 0
2020-11-17 15:00:51 GMT 40.773449 -73.863922 0 105 6 0
2020-11-17 15:00:48 GMT 40.773499 -73.864037 0 324 3 0
2020-11-17 15:00:45 GMT 40.773510 -73.864151 0 312 3 0
2020-11-17 15:00:42 GMT 40.773602 -73.864288 0 312 0 0
2020-11-17 15:00:36 GMT 40.773621 -73.864304 0 312 0 0
2020-11-17 15:00:33 GMT 40.773621 -73.864273 0 312 1 0
2020-11-17 15:00:30 GMT 40.773628 -73.864273 0 312 2 0
2020-11-17 15:00:26 GMT 40.773602 -73.864288 0 312 0 0
2020-11-17 15:00:21 GMT 40.773609 -73.864288 0 312 0 0
2020-11-17 15:00:18 GMT 40.773609 -73.864288 0 312 0 0
2020-11-17 15:00:15 GMT 40.773602 -73.864281 0 312 0 0
2020-11-17 15:00:11 GMT 40.773602 -73.864288 0 312 0 0
2020-11-17 15:00:08 GMT 40.773602 -73.864288 0 312 0 0
2020-11-17 15:00:05 GMT 40.773579 -73.864288 0 312 1 0
2020-11-17 15:00:02 GMT 40.773602 -73.864288 0 312 0 0
2020-11-17 14:59:59 GMT 40.773609 -73.864258 0 312 0 0
2020-11-17 14:59:56 GMT 40.773609 -73.864288 0 312 0 0
2020-11-17 14:59:53 GMT 40.773602 -73.864304 0 312 0 0
2020-11-17 14:59:50 GMT 40.773602 -73.864304 0 312 0 0
2020-11-17 14:59:47 GMT 40.773590 -73.864288 0 312 0 0
2020-11-17 14:59:44 GMT 40.773602 -73.864304 0 312 0 0
2020-11-17 14:59:41 GMT 40.773602 -73.864288 0 312 0 0
2020-11-17 14:59:38 GMT 40.773602 -73.864281 0 312 0 0
2020-11-17 14:59:33 GMT 40.773602 -73.864288 0 312 0 0
2020-11-17 14:59:30 GMT 40.773590 -73.864288 0 312 0 0
2020-11-17 14:59:27 GMT 40.773590 -73.864281 0 312 0 0
2020-11-17 14:59:22 GMT 40.773602 -73.864288 0 312 0 0
2020-11-17 14:59:19 GMT 40.773590 -73.864288 0 312 0 0
2020-11-17 14:59:16 GMT 40.773590 -73.864273 0 312 0 0
2020-11-17 14:59:13 GMT 40.773602 -73.864288 0 312 0 0
2020-11-17 14:59:10 GMT 40.773590 -73.864288 0 312 0 0
2020-11-17 14:59:07 GMT 40.773609 -73.864273 0 312 0 0
2020-11-17 14:59:04 GMT 40.773609 -73.864288 0 312 0 0
2020-11-17 14:59:01 GMT 40.773621 -73.864311 0 312 0 0
2020-11-17 14:58:58 GMT 40.773609 -73.864319 0 312 0 0
2020-11-17 14:58:55 GMT 40.773621 -73.864288 0 312 0 0
2020-11-17 14:58:52 GMT 40.773590 -73.864288 0 312 0 0
2020-11-17 14:58:49 GMT 40.773590 -73.864288 0 312 0 0
2020-11-17 14:58:46 GMT 40.773590 -73.864304 0 312 0 0
2020-11-17 14:58:43 GMT 40.773590 -73.864288 0 312 0 0
2020-11-17 14:58:40 GMT 40.773602 -73.864288 0 312 0 0
2020-11-17 14:58:36 GMT 40.773609 -73.864311 0 312 0 0
2020-11-17 14:58:33 GMT 40.773602 -73.864288 0 312 0 0
2020-11-17 14:58:30 GMT 40.773602 -73.864288 0 312 0 0
2020-11-17 14:58:27 GMT 40.773609 -73.864311 0 312 0 0
2020-11-17 14:58:24 GMT 40.773602 -73.864288 0 312 0 0
2020-11-17 14:58:21 GMT 40.773602 -73.864281 0 312 0 0
2020-11-17 14:58:18 GMT 40.773609 -73.864326 0 312 0 0
2020-11-17 14:58:15 GMT 40.773621 -73.864304 0 312 0 0
2020-11-17 14:58:12 GMT 40.773621 -73.864288 0 312 0 0
2020-11-17 14:58:09 GMT 40.773579 -73.864304 0 312 0 0
2020-11-17 14:58:06 GMT 40.773590 -73.864288 0 312 0 0
2020-11-17 14:58:03 GMT 40.773602 -73.864281 0 312 0 0
2020-11-17 14:58:00 GMT 40.773602 -73.864288 0 312 0 0
2020-11-17 14:57:55 GMT 40.773602 -73.864288 0 312 1 0
2020-11-17 14:57:52 GMT 40.773609 -73.864250 0 312 0 0
2020-11-17 14:57:49 GMT 40.773609 -73.864281 0 312 0 0
2020-11-17 14:57:46 GMT 40.773609 -73.864281 0 312 0 0
2020-11-17 14:57:43 GMT 40.773602 -73.864273 0 312 0 0
2020-11-17 14:57:40 GMT 40.773609 -73.864288 0 312 0 0
2020-11-17 14:57:37 GMT 40.773609 -73.864281 0 312 0 0
2020-11-17 14:57:33 GMT 40.773590 -73.864281 0 312 0 0
2020-11-17 14:57:30 GMT 40.773602 -73.864288 0 312 0 0
2020-11-17 14:57:27 GMT 40.773590 -73.864288 0 312 0 0
2020-11-17 14:57:24 GMT 40.773602 -73.864281 0 312 0 0
2020-11-17 14:57:17 GMT 40.773602 -73.864288 0 312 0 0
2020-11-17 14:57:13 GMT 40.773602 -73.864281 0 312 0 0
2020-11-17 14:57:10 GMT 40.773640 -73.864334 0 312 0 0
2020-11-17 14:57:05 GMT 40.773609 -73.864258 0 312 0 0
2020-11-17 14:57:02 GMT 40.773579 -73.864288 0 312 0 0
2020-11-17 14:56:59 GMT 40.773579 -73.864288 0 312 1 0
2020-11-17 14:56:56 GMT 40.773602 -73.864281 0 312 0 0
2020-11-17 14:56:53 GMT 40.773609 -73.864281 0 312 0 0
2020-11-17 14:56:50 GMT 40.773602 -73.864319 0 312 0 0
2020-11-17 14:56:47 GMT 40.773590 -73.864258 0 353 4 0
2020-11-17 14:56:44 GMT 40.773540 -73.864212 0 359 2 0
2020-11-17 14:56:41 GMT 40.773548 -73.864166 0 359 1 0
2020-11-17 14:56:38 GMT 40.773499 -73.864128 0 11 1 0
2020-11-17 14:56:35 GMT 40.773479 -73.864143 0 11 2 0
2020-11-17 14:56:32 GMT 40.773399 -73.864182 0 35 2
2020-11-17 14:56:29 GMT 40.773399 -73.864182 0 35 2
2020-11-17 14:56:26 GMT 40.773399 -73.864159 0 35 3
2020-11-17 14:56:23 GMT 40.773361 -73.864189 0 29 3
2020-11-17 14:56:20 GMT 40.773338 -73.864220 0 19 3
2020-11-17 14:56:17 GMT 40.773281 -73.864311 0 11 3
2020-11-17 14:56:14 GMT 40.773281 -73.864311 0 9 3
2020-11-17 14:56:11 GMT 40.773251 -73.864342 0 5 3
2020-11-17 14:56:08 GMT 40.773201 -73.864357 0 3 4
2020-11-17 14:52:46 GMT 40.773033 -73.864639 0 227 0
2020-11-17 14:52:40 GMT 40.773033 -73.864639 0 227 0
2020-11-17 14:52:25 GMT 40.773033 -73.864639 0 227 0
2020-11-17 14:52:21 GMT 40.773045 -73.864639 0 227 0
2020-11-17 14:51:20 GMT 40.773033 -73.864639 0 227 0
2020-11-17 14:51:11 GMT 40.773033 -73.864655 0 227 0
2020-11-17 14:50:59 GMT 40.773033 -73.864655 0 227 0
2020-11-17 14:50:49 GMT 40.773033 -73.864655 0 227 0
2020-11-17 14:50:40 GMT 40.773022 -73.864655 0 227 0
2020-11-17 14:50:15 GMT 40.773033 -73.864655 0 227 0
2020-11-17 14:50:06 GMT 40.773022 -73.864655 0 227 0
2020-11-17 14:49:55 GMT 40.773033 -73.864655 0 227 0
2020-11-17 14:49:34 GMT 40.773033 -73.864655 0 227 0
2020-11-17 14:49:25 GMT 40.773033 -73.864655 0 227 0
2020-11-17 14:49:14 GMT 40.773033 -73.864639 0 227 0
2020-11-17 14:48:44 GMT 40.773033 -73.864655 0 227 0
2020-11-17 14:48:35 GMT 40.773045 -73.864655 0 227 0
2020-11-17 14:48:25 GMT 40.773045 -73.864655 0 227 0
2020-11-17 14:48:14 GMT 40.773045 -73.864639 0 227 0
2020-11-17 14:48:05 GMT 40.773033 -73.864639 0 227 0
2020-11-17 14:47:11 GMT 40.773033 -73.864639 0 227 0
2020-11-17 14:47:00 GMT 40.773033 -73.864639 0 227 0
2020-11-17 14:46:41 GMT 40.773033 -73.864639 0 227 0
2020-11-17 14:45:40 GMT 40.773033 -73.864639 0 227 0
2020-11-17 14:45:30 GMT 40.773033 -73.864639 0 227 0
2020-11-17 14:45:15 GMT 40.773033 -73.864639 0 227 0
2020-11-17 14:45:05 GMT 40.773033 -73.864639 0 227 0
2020-11-17 14:44:56 GMT 40.773033 -73.864639 0 227 0
2020-11-17 14:44:45 GMT 40.773033 -73.864639 0 227 0
2020-11-17 14:44:35 GMT 40.773033 -73.864639 0 227 0
2020-11-17 14:44:26 GMT 40.773033 -73.864639 0 227 0
2020-11-17 14:44:06 GMT 40.773033 -73.864655 0 227 0
2020-11-17 14:43:46 GMT 40.773033 -73.864639 0 227 0
2020-11-17 14:43:30 GMT 40.773033 -73.864639 0 227 0
2020-11-17 14:43:17 GMT 40.773033 -73.864655 0 227 0
2020-11-17 14:43:06 GMT 40.773033 -73.864639 0 227 0
2020-11-17 14:42:42 GMT 40.773033 -73.864655 0 227 0
2020-11-17 14:42:21 GMT 40.773033 -73.864655 0 227 0
2020-11-17 14:42:12 GMT 40.773033 -73.864655 0 227 0
2020-11-17 14:42:03 GMT 40.773033 -73.864655 0 227 0
2020-11-17 14:41:52 GMT 40.773045 -73.864655 0 227 0
2020-11-17 14:41:42 GMT 40.773033 -73.864655 0 227 0
2020-11-17 14:41:33 GMT 40.773033 -73.864655 0 227 0
2020-11-17 14:41:22 GMT 40.773045 -73.864655 0 227 0
2020-11-17 14:40:48 GMT 40.773033 -73.864655 0 227 0
2020-11-17 14:40:38 GMT 40.773033 -73.864655 0 227 0
2020-11-17 14:40:18 GMT 40.773033 -73.864655 0 227 0
2020-11-17 14:40:02 GMT 40.773033 -73.864655 0 227 0
2020-11-17 14:39:52 GMT 40.773033 -73.864655 0 227 0
2020-11-17 14:39:48 GMT 40.773033 -73.864655 0 227 0
2020-11-17 14:39:37 GMT 40.773033 -73.864655 0 227 0
2020-11-17 14:39:08 GMT 40.773033 -73.864655 0 227 0
2020-11-17 14:38:37 GMT 40.773033 -73.864655 0 227 0
2020-11-17 14:38:17 GMT 40.773033 -73.864655 0 227 0
2020-11-17 14:37:57 GMT 40.773033 -73.864655 0 227 0
2020-11-17 14:37:47 GMT 40.773033 -73.864655 0 227 0
2020-11-17 14:37:02 GMT 40.773045 -73.864655 0 227 0
2020-11-17 14:36:51 GMT 40.773045 -73.864655 0 227 0
2020-11-17 14:36:41 GMT 40.773045 -73.864655 0 227 0
2020-11-17 14:36:31 GMT 40.773033 -73.864655 0 227 0
2020-11-17 14:36:22 GMT 40.773033 -73.864655 0 227 0
2020-11-17 14:35:52 GMT 40.773033 -73.864655 0 227 0
2020-11-17 14:35:31 GMT 40.773033 -73.864655 0 227 0
2020-11-17 14:35:22 GMT 40.773033 -73.864655 0 227 0
2020-11-17 14:35:10 GMT 40.773033 -73.864655 0 227 0
2020-11-17 14:34:50 GMT 40.773033 -73.864655 0 227 0
2020-11-17 14:34:30 GMT 40.773033 -73.864655 0 227 0
2020-11-17 14:34:06 GMT 40.773033 -73.864655 0 227 0
2020-11-17 14:33:45 GMT 40.773033 -73.864655 0 227 0

Making use of Plane Finder data

You are free to use the raw flight data, aircraft information and images provided in this report for your own purposes provided the data is correctly attributed to Plane Finder. We ask that you please credit Plane Finder and link to planefinder.net in close proximity to the content.

Optionally one of the following logos (no smaller then 150x24px) can be used and must link to planefinder.net

Embedding the Plane Finder map

You are welcome to embed the Plane Finder playback map on your website to offer visitors a more interactive experience. We suggest using the following HTML code:

<iframe src="//planefinder.net/data/report/DL5783-N815MD-7700-squawk-2020-11-17/map" width="800" height="600" seamless="seamless"></iframe>

Where our data comes from

Plane Finder has a global network of data feeds and antenna radars that receive data broadcast directly from aircraft. The primary technologies used are ADS-B and MLAT. We also show feeds from the FAA and a FLARM glider feed.

Click here to find out more about the Plane Finder network.

How we collect our data